createdAt,value
2019-06-20T00:02:06.227Z,1.47
2019-06-20T00:04:32.462Z,1.83
2019-06-20T00:06:58.606Z,2.20
2019-06-20T00:09:24.840Z,1.50
2019-06-20T00:11:51.798Z,1.63
2019-06-20T00:14:18.025Z,1.80
2019-06-20T00:16:44.220Z,1.50
2019-06-20T00:19:10.504Z,1.70
2019-06-20T00:21:36.656Z,1.73
2019-06-20T00:24:03.198Z,3.83
2019-06-20T00:26:29.661Z,1.57
2019-06-20T00:28:55.872Z,1.80
2019-06-20T00:31:22.016Z,1.70
2019-06-20T00:33:48.346Z,1.80
2019-06-20T00:36:14.914Z,2.10
2019-06-20T00:38:41.193Z,1.50
2019-06-20T00:41:07.690Z,1.80
2019-06-20T00:43:33.840Z,1.50
2019-06-20T00:46:00.062Z,1.63
2019-06-20T00:48:26.207Z,1.57
2019-06-20T00:50:52.439Z,1.73
2019-06-20T00:53:18.592Z,2.43
2019-06-20T00:55:44.885Z,1.63
2019-06-20T00:58:11.441Z,1.67
2019-06-20T01:00:37.905Z,1.67
2019-06-20T01:03:04.051Z,1.60
2019-06-20T01:05:30.281Z,1.40
2019-06-20T01:07:56.770Z,1.40
2019-06-20T01:10:23.156Z,1.70
2019-06-20T01:12:49.294Z,1.70
2019-06-20T01:15:15.741Z,1.63
2019-06-20T01:17:42.083Z,2.00
2019-06-20T01:20:09.300Z,1.70
2019-06-20T01:22:35.531Z,1.60
2019-06-20T01:25:02.076Z,1.70
2019-06-20T01:27:28.216Z,1.63
2019-06-20T01:29:54.418Z,1.80
2019-06-20T01:32:20.552Z,1.80
2019-06-20T01:34:47.685Z,1.50
2019-06-20T01:37:13.906Z,1.50
2019-06-20T01:39:40.142Z,1.80
2019-06-20T01:42:06.831Z,1.53
2019-06-20T01:46:59.146Z,1.60
2019-06-20T01:49:25.356Z,1.57
2019-06-20T01:51:51.764Z,1.20
2019-06-20T01:54:18.298Z,1.50
2019-06-20T01:56:44.447Z,1.40
2019-06-20T01:59:10.645Z,1.50
2019-06-20T02:01:37.031Z,1.70
2019-06-20T02:04:03.523Z,1.70
2019-06-20T02:06:29.667Z,1.43
2019-06-20T02:08:55.872Z,1.50
2019-06-20T02:11:22.381Z,1.60
2019-06-20T02:13:48.894Z,1.83
2019-06-20T02:16:15.047Z,1.63
2019-06-20T02:18:41.263Z,2.10
2019-06-20T02:21:07.811Z,1.93
2019-06-20T02:23:34.027Z,1.77
2019-06-20T02:26:00.200Z,1.87
2019-06-20T02:28:26.371Z,4.30
2019-06-20T02:30:52.862Z,1.83
2019-06-20T02:33:19.422Z,1.93
2019-06-20T02:35:45.547Z,2.43
2019-06-20T02:38:12.060Z,1.97
2019-06-20T02:40:38.514Z,2.00
2019-06-20T02:43:04.814Z,2.10
2019-06-20T02:45:31.454Z,2.03
2019-06-20T02:47:57.618Z,2.03
2019-06-20T02:50:25.221Z,1.93
2019-06-20T02:52:51.370Z,2.00
2019-06-20T02:55:17.789Z,1.90
2019-06-20T02:57:43.942Z,2.33
2019-06-20T03:00:11.709Z,2.43
2019-06-20T03:02:37.887Z,1.87
2019-06-20T03:05:05.909Z,1.87
2019-06-20T03:07:32.051Z,1.43
2019-06-20T03:09:58.266Z,1.83
2019-06-20T03:12:24.506Z,1.80
2019-06-20T03:14:51.017Z,1.57
2019-06-20T03:17:17.550Z,1.70
2019-06-20T03:19:43.686Z,2.27
2019-06-20T03:22:10.703Z,1.90
2019-06-20T03:24:36.836Z,2.27
2019-06-20T03:27:03.456Z,1.70
2019-06-20T03:29:29.728Z,1.57
2019-06-20T03:31:56.242Z,1.73
2019-06-20T03:34:22.522Z,2.20
2019-06-20T03:36:48.818Z,1.80
2019-06-20T03:39:15.427Z,1.63
2019-06-20T03:41:41.989Z,2.10
2019-06-20T03:44:08.347Z,1.90
2019-06-20T03:46:34.506Z,1.87
2019-06-20T03:49:00.757Z,1.80
2019-06-20T03:51:26.902Z,1.70
2019-06-20T03:53:53.420Z,1.80
2019-06-20T03:56:20.171Z,1.80
2019-06-20T03:58:46.591Z,2.63
2019-06-20T04:01:12.744Z,1.73
2019-06-20T04:03:38.969Z,1.90
2019-06-20T04:06:05.134Z,1.83
2019-06-20T04:08:31.359Z,1.77
2019-06-20T04:10:57.576Z,2.23
2019-06-20T04:13:24.021Z,2.00
2019-06-20T04:15:50.160Z,2.23
2019-06-20T04:18:16.378Z,1.83
2019-06-20T04:20:42.845Z,2.00
2019-06-20T04:23:09.049Z,2.63
2019-06-20T04:25:35.223Z,2.03
2019-06-20T04:28:01.456Z,2.03
2019-06-20T04:30:27.615Z,1.90
2019-06-20T04:32:54.115Z,1.93
2019-06-20T04:35:20.343Z,1.87
2019-06-20T04:37:46.552Z,1.70
2019-06-20T04:40:12.786Z,2.17
2019-06-20T04:42:38.936Z,1.63
2019-06-20T04:45:13.144Z,2.50
2019-06-20T04:47:39.597Z,2.23
2019-06-20T04:50:05.833Z,2.03
2019-06-20T04:52:32.278Z,2.30
2019-06-20T04:54:58.819Z,3.13
2019-06-20T04:57:24.959Z,2.87
2019-06-20T04:59:53.096Z,2.30
2019-06-20T05:02:21.147Z,1.80
2019-06-20T05:04:47.390Z,2.40
2019-06-20T05:07:18.072Z,2.30
2019-06-20T05:09:46.473Z,1.97
2019-06-20T05:12:12.922Z,1.90
2019-06-20T05:14:39.398Z,2.20
2019-06-20T05:17:07.260Z,2.90
2019-06-20T05:19:33.697Z,4.00
2019-06-20T05:21:59.843Z,2.07
2019-06-20T05:24:26.078Z,2.07
2019-06-20T05:26:52.239Z,1.87
2019-06-20T05:29:18.812Z,1.77
2019-06-20T05:31:44.981Z,1.80
2019-06-20T05:34:11.323Z,2.53
2019-06-20T05:36:37.481Z,2.20
2019-06-20T05:39:05.555Z,2.40
2019-06-20T05:41:32.134Z,2.30
2019-06-20T05:43:58.281Z,2.57
2019-06-20T05:46:24.571Z,3.57
2019-06-20T05:48:51.026Z,3.73
2019-06-20T05:51:17.247Z,2.33
2019-06-20T05:53:43.773Z,2.47
2019-06-20T05:56:11.471Z,2.20
2019-06-20T05:58:38.024Z,2.33
2019-06-20T06:01:04.243Z,2.07
2019-06-20T06:03:30.690Z,2.33
2019-06-20T06:05:57.392Z,2.10
2019-06-20T06:08:23.617Z,1.97
2019-06-20T06:10:50.213Z,1.97
2019-06-20T06:13:16.664Z,2.10
2019-06-20T06:15:43.181Z,3.37
2019-06-20T06:18:09.345Z,1.73
2019-06-20T06:20:35.650Z,3.17
2019-06-20T06:23:01.791Z,1.73
2019-06-20T06:25:28.081Z,2.10
2019-06-20T06:27:54.342Z,1.83
2019-06-20T06:30:20.694Z,1.77
2019-06-20T06:32:46.851Z,1.80
2019-06-20T06:35:14.959Z,3.90
2019-06-20T06:37:41.115Z,1.83
2019-06-20T06:40:09.835Z,3.33
2019-06-20T06:42:35.982Z,1.93
2019-06-20T06:45:06.139Z,1.77
2019-06-20T06:47:32.504Z,2.00
2019-06-20T06:49:58.650Z,1.70
2019-06-20T06:52:25.393Z,1.93
2019-06-20T06:54:51.587Z,2.13
2019-06-20T06:57:17.858Z,1.40
2019-06-20T06:59:47.195Z,1.50
2019-06-20T07:02:13.732Z,1.40
2019-06-20T07:04:40.177Z,1.47
2019-06-20T07:07:06.712Z,1.77
2019-06-20T07:09:35.418Z,1.50
2019-06-20T07:12:01.505Z,1.23
2019-06-20T07:14:27.658Z,1.53
2019-06-20T07:17:00.247Z,2.83
2019-06-20T07:19:21.954Z,1.30
2019-06-20T07:21:48.125Z,1.20
2019-06-20T07:24:14.321Z,1.07
2019-06-20T07:26:40.913Z,1.00
2019-06-20T07:29:07.060Z,1.87
2019-06-20T07:31:33.423Z,1.00
2019-06-20T07:33:59.573Z,2.00
2019-06-20T07:36:26.263Z,1.93
2019-06-20T07:38:52.581Z,1.33
2019-06-20T07:41:18.911Z,1.07
2019-06-20T07:43:45.170Z,1.40
2019-06-20T07:46:11.302Z,1.10
2019-06-20T07:48:37.813Z,1.10
2019-06-20T07:51:03.956Z,1.17
2019-06-20T07:53:30.183Z,1.30
2019-06-20T07:55:56.322Z,0.80
2019-06-20T07:58:22.557Z,1.20
2019-06-20T08:00:48.716Z,1.10
2019-06-20T08:03:15.295Z,1.80
2019-06-20T08:05:41.449Z,1.20
2019-06-20T08:08:09.125Z,1.07
2019-06-20T08:10:35.439Z,0.87
2019-06-20T08:13:01.826Z,0.80
2019-06-20T08:15:27.977Z,1.27
2019-06-20T08:17:54.486Z,0.80
2019-06-20T08:20:21.221Z,0.80
2019-06-20T08:22:47.515Z,1.63
2019-06-20T08:25:16.556Z,0.90
2019-06-20T08:27:49.340Z,0.90
2019-06-20T08:30:19.279Z,1.20
2019-06-20T08:32:45.662Z,1.00
2019-06-20T08:35:12.239Z,1.10
2019-06-20T08:37:38.413Z,1.53
2019-06-20T08:40:15.498Z,1.20
2019-06-20T08:42:41.629Z,1.20
2019-06-20T08:45:12.392Z,1.10
2019-06-20T08:47:38.556Z,1.00
2019-06-20T08:50:06.160Z,1.13
2019-06-20T08:52:32.487Z,0.93
2019-06-20T08:54:59.583Z,1.30
2019-06-20T08:57:26.188Z,1.40
2019-06-20T08:59:52.469Z,1.17
2019-06-20T09:02:19.219Z,1.10
2019-06-20T09:04:45.804Z,1.23
2019-06-20T09:07:11.970Z,1.50
2019-06-20T09:09:38.468Z,1.20
2019-06-20T09:12:05.262Z,1.20
2019-06-20T09:14:31.710Z,1.13
2019-06-20T09:16:59.293Z,2.03
2019-06-20T09:19:26.063Z,1.20
2019-06-20T09:21:53.898Z,1.40
2019-06-20T09:24:20.427Z,2.90
2019-06-20T09:26:46.573Z,1.00
2019-06-20T09:29:13.255Z,1.73
2019-06-20T09:31:39.436Z,0.90
2019-06-20T09:34:05.782Z,1.00
2019-06-20T09:36:32.028Z,0.93
2019-06-20T09:38:59.585Z,1.73
2019-06-20T09:41:25.900Z,1.20
2019-06-20T09:43:54.212Z,1.07
2019-06-20T09:46:20.508Z,1.20
2019-06-20T09:48:46.663Z,1.30
2019-06-20T09:51:12.953Z,1.30
2019-06-20T09:53:39.118Z,2.33
2019-06-20T09:56:05.629Z,1.40
2019-06-20T09:58:31.834Z,1.10
2019-06-20T10:01:01.969Z,1.93
2019-06-20T10:03:28.114Z,1.23
2019-06-20T10:05:54.744Z,1.10
2019-06-20T10:08:21.079Z,1.20
2019-06-20T10:10:49.351Z,0.93
2019-06-20T10:13:15.818Z,1.00
2019-06-20T10:15:42.370Z,1.07
2019-06-20T10:18:08.523Z,1.63
2019-06-20T10:20:39.038Z,1.20
2019-06-20T10:23:05.519Z,1.07
2019-06-20T10:25:32.122Z,1.30
2019-06-20T10:27:58.283Z,0.90
2019-06-20T10:30:25.979Z,1.20
2019-06-20T10:32:53.245Z,0.87
2019-06-20T10:35:20.825Z,0.90
2019-06-20T10:37:48.348Z,0.87
2019-06-20T10:40:17.875Z,1.10
2019-06-20T10:42:44.976Z,0.80
2019-06-20T10:45:22.807Z,1.10
2019-06-20T10:47:50.947Z,0.80
2019-06-20T10:50:18.490Z,1.53
2019-06-20T10:52:45.296Z,2.93
2019-06-20T10:55:12.006Z,1.17
2019-06-20T10:57:38.229Z,0.80
2019-06-20T11:00:10.512Z,1.33
2019-06-20T11:02:37.541Z,1.13
2019-06-20T11:05:05.293Z,1.10
2019-06-20T11:07:31.636Z,0.83
2019-06-20T11:09:58.030Z,0.90
2019-06-20T11:12:24.405Z,0.83
2019-06-20T11:14:50.566Z,1.63
2019-06-20T11:17:16.803Z,1.00
2019-06-20T11:19:43.768Z,0.90
2019-06-20T11:22:10.172Z,0.77
2019-06-20T11:24:37.429Z,1.70
2019-06-20T11:27:04.869Z,0.83
2019-06-20T11:29:31.272Z,0.70
2019-06-20T11:31:57.674Z,0.87
2019-06-20T11:34:23.863Z,0.80
2019-06-20T11:36:50.108Z,0.70
2019-06-20T11:39:16.272Z,1.27
2019-06-20T11:41:43.676Z,1.33
2019-06-20T11:44:10.310Z,0.87
2019-06-20T11:46:37.006Z,0.77
2019-06-20T11:49:04.103Z,1.03
2019-06-20T11:51:30.265Z,0.93
2019-06-20T11:53:56.901Z,1.00
2019-06-20T11:56:23.085Z,1.10
2019-06-20T11:58:49.341Z,1.17
2019-06-20T12:01:15.563Z,1.17
2019-06-20T12:03:44.595Z,0.87
2019-06-20T12:06:11.354Z,0.90
2019-06-20T12:08:39.079Z,1.00
2019-06-20T12:11:05.759Z,0.80
2019-06-20T12:13:32.046Z,1.00
2019-06-20T12:15:58.228Z,1.00
2019-06-20T12:18:24.523Z,1.77
2019-06-20T12:20:50.730Z,0.73
2019-06-20T12:23:16.990Z,1.33
2019-06-20T12:25:44.269Z,0.93
2019-06-20T12:28:10.779Z,0.87
2019-06-20T12:30:38.417Z,0.90
2019-06-20T12:33:05.308Z,0.90
2019-06-20T12:35:31.492Z,0.83
2019-06-20T12:37:57.865Z,0.90
2019-06-20T12:40:24.426Z,0.70
2019-06-20T12:42:51.004Z,1.80
2019-06-20T12:45:17.481Z,1.33
2019-06-20T12:47:44.235Z,1.07
2019-06-20T12:50:13.109Z,0.70
2019-06-20T12:52:40.702Z,0.67
2019-06-20T12:55:10.153Z,0.80
2019-06-20T12:57:38.495Z,1.17
2019-06-20T13:00:11.179Z,0.63
2019-06-20T13:02:38.688Z,1.13
2019-06-20T13:05:06.394Z,0.70
2019-06-20T13:07:32.545Z,0.80
2019-06-20T13:09:58.907Z,1.07
2019-06-20T13:12:25.673Z,0.70
2019-06-20T13:14:51.973Z,1.07
2019-06-20T13:17:18.266Z,0.70
2019-06-20T13:19:46.438Z,0.70
2019-06-20T13:22:12.915Z,1.10
2019-06-20T13:24:39.729Z,1.23
2019-06-20T13:27:07.136Z,0.70
2019-06-20T13:29:33.718Z,0.83
2019-06-20T13:32:04.411Z,0.80
2019-06-20T13:34:28.087Z,1.00
2019-06-20T13:36:54.311Z,1.20
2019-06-20T13:39:20.544Z,1.03
2019-06-20T13:41:47.826Z,1.00
2019-06-20T13:44:16.093Z,2.03
2019-06-20T13:46:44.510Z,1.20
2019-06-20T13:49:11.153Z,0.83
2019-06-20T13:51:39.946Z,1.20
2019-06-20T13:54:06.196Z,0.87
2019-06-20T13:56:32.372Z,1.30
2019-06-20T13:58:59.083Z,1.03
2019-06-20T14:01:25.522Z,0.80
2019-06-20T14:03:51.697Z,0.90
2019-06-20T14:06:17.979Z,0.80
2019-06-20T14:08:45.960Z,0.80
2019-06-20T14:11:13.070Z,1.53
2019-06-20T14:13:41.095Z,1.90
2019-06-20T14:16:07.953Z,0.87
2019-06-20T14:18:34.407Z,0.80
2019-06-20T14:21:01.347Z,1.10
2019-06-20T14:23:27.876Z,0.80
2019-06-20T14:25:54.164Z,0.90
2019-06-20T14:28:20.340Z,1.10
2019-06-20T14:30:48.349Z,0.90
2019-06-20T14:33:14.651Z,0.90
2019-06-20T14:35:43.509Z,0.83
2019-06-20T14:38:09.694Z,0.60
2019-06-20T14:40:35.968Z,0.80
2019-06-20T14:43:02.126Z,1.00
2019-06-20T14:45:28.445Z,1.20
2019-06-20T14:47:55.240Z,0.90
2019-06-20T14:50:22.182Z,0.90
2019-06-20T14:52:50.020Z,1.43
2019-06-20T14:55:17.869Z,1.17
2019-06-20T14:57:46.953Z,0.90
2019-06-20T15:00:17.827Z,1.10
2019-06-20T15:02:45.844Z,0.97
2019-06-20T15:05:15.133Z,1.20
2019-06-20T15:07:41.770Z,1.27
2019-06-20T15:10:08.064Z,1.20
2019-06-20T15:12:34.318Z,0.90
2019-06-20T15:15:00.480Z,1.37
2019-06-20T15:17:26.798Z,1.17
2019-06-20T15:19:54.261Z,0.80
2019-06-20T15:22:20.795Z,0.70
2019-06-20T15:24:50.012Z,0.90
2019-06-20T15:27:15.201Z,1.03
2019-06-20T15:29:41.371Z,1.00
2019-06-20T15:32:07.666Z,0.70
2019-06-20T15:34:33.828Z,0.80
2019-06-20T15:37:00.617Z,1.07
2019-06-20T15:39:27.521Z,0.90
2019-06-20T15:41:54.301Z,0.90
2019-06-20T15:44:20.617Z,0.87
2019-06-20T15:46:48.319Z,0.77
2019-06-20T15:49:16.296Z,1.00
2019-06-20T15:51:42.764Z,1.10
2019-06-20T15:54:08.968Z,1.20
2019-06-20T15:56:35.328Z,1.10
2019-06-20T15:59:01.721Z,0.83
2019-06-20T16:01:27.907Z,1.20
2019-06-20T16:03:54.517Z,1.20
2019-06-20T16:06:20.699Z,1.53
2019-06-20T16:08:46.971Z,0.77
2019-06-20T16:11:13.607Z,0.80
2019-06-20T16:13:40.028Z,1.10
2019-06-20T16:16:06.182Z,1.03
2019-06-20T16:18:32.499Z,1.00
2019-06-20T16:20:58.965Z,0.90
2019-06-20T16:23:25.292Z,1.47
2019-06-20T16:25:51.527Z,1.27
2019-06-20T16:28:17.849Z,0.90
2019-06-20T16:30:44.119Z,0.90
2019-06-20T16:33:24.065Z,0.90
2019-06-20T16:35:39.101Z,0.93
2019-06-20T16:38:05.437Z,1.10
2019-06-20T16:40:44.428Z,0.90
2019-06-20T16:43:10.894Z,1.30
2019-06-20T16:45:37.153Z,1.00
2019-06-20T16:48:03.843Z,1.30
2019-06-20T16:50:30.002Z,2.23
2019-06-20T16:52:56.700Z,2.27
2019-06-20T16:55:22.856Z,1.97
2019-06-20T16:57:50.033Z,3.10
2019-06-20T17:00:16.712Z,1.93
2019-06-20T17:02:42.974Z,1.80
2019-06-20T17:05:11.433Z,1.40
2019-06-20T17:07:37.806Z,1.40
2019-06-20T17:10:05.681Z,1.30
2019-06-20T17:12:31.927Z,1.20
2019-06-20T17:14:58.294Z,1.10
2019-06-20T17:17:24.469Z,2.57
2019-06-20T17:19:51.176Z,1.00
2019-06-20T17:22:17.337Z,1.67
2019-06-20T17:24:44.008Z,1.13
2019-06-20T17:27:10.207Z,1.23
2019-06-20T17:29:36.892Z,1.17
2019-06-20T17:32:03.271Z,1.10
2019-06-20T17:34:29.850Z,0.93
2019-06-20T17:36:56.004Z,0.90
2019-06-20T17:39:22.629Z,1.40
2019-06-20T17:41:55.254Z,0.80
2019-06-20T17:44:17.391Z,1.50
2019-06-20T17:46:43.894Z,1.13
2019-06-20T17:49:10.436Z,0.90
2019-06-20T17:51:36.802Z,0.83
2019-06-20T17:54:03.845Z,1.20
2019-06-20T17:56:30.010Z,0.70
2019-06-20T17:58:56.630Z,0.90
2019-06-20T18:01:23.157Z,0.93
2019-06-20T18:03:49.427Z,1.00
2019-06-20T18:06:15.628Z,1.00
2019-06-20T18:08:42.015Z,1.10
2019-06-20T18:11:08.678Z,1.67
2019-06-20T18:13:35.138Z,1.80
2019-06-20T18:16:01.417Z,1.07
2019-06-20T18:18:27.591Z,1.60
2019-06-20T18:20:53.913Z,1.30
2019-06-20T18:23:20.086Z,1.33
2019-06-20T18:25:46.341Z,1.50
2019-06-20T18:28:12.783Z,1.23
2019-06-20T18:30:42.116Z,1.60
2019-06-20T18:33:08.815Z,1.03
2019-06-20T18:35:35.492Z,1.30
2019-06-20T18:38:02.100Z,1.30
2019-06-20T18:40:28.355Z,1.17
2019-06-20T18:42:54.553Z,1.67
2019-06-20T18:45:21.739Z,1.23
2019-06-20T18:47:47.913Z,2.13
2019-06-20T18:50:14.498Z,1.20
2019-06-20T18:52:51.646Z,1.53
2019-06-20T18:55:10.824Z,1.10
2019-06-20T18:57:37.199Z,1.37
2019-06-20T19:00:11.473Z,1.40
2019-06-20T19:02:37.847Z,1.37
2019-06-20T19:05:06.706Z,1.40
2019-06-20T19:07:33.215Z,1.30
2019-06-20T19:09:59.943Z,0.90
2019-06-20T19:12:26.296Z,1.30
2019-06-20T19:14:52.883Z,1.10
2019-06-20T19:17:19.173Z,1.53
2019-06-20T19:19:45.392Z,1.43
2019-06-20T19:22:11.623Z,1.20
2019-06-20T19:24:38.061Z,1.30
2019-06-20T19:27:04.367Z,1.10
2019-06-20T19:29:30.581Z,1.30
2019-06-20T19:31:56.913Z,0.90
2019-06-20T19:34:23.081Z,1.47
2019-06-20T19:36:50.325Z,1.77
2019-06-20T19:39:16.494Z,1.20
2019-06-20T19:41:43.038Z,1.10
2019-06-20T19:44:09.459Z,0.90
2019-06-20T19:46:35.874Z,1.30
2019-06-20T19:49:02.302Z,1.37
2019-06-20T19:51:28.752Z,1.23
2019-06-20T19:53:55.250Z,1.57
2019-06-20T19:56:21.522Z,0.97
2019-06-20T19:58:47.813Z,1.27
2019-06-20T20:01:14.090Z,0.90
2019-06-20T20:03:40.257Z,1.20
2019-06-20T20:06:06.776Z,1.13
2019-06-20T20:08:32.915Z,1.67
2019-06-20T20:10:59.542Z,1.20
2019-06-20T20:13:25.718Z,0.90
2019-06-20T20:15:51.860Z,0.83
2019-06-20T20:18:18.442Z,0.93
2019-06-20T20:20:47.542Z,0.83
2019-06-20T20:23:14.107Z,1.80
2019-06-20T20:25:40.644Z,1.40
2019-06-20T20:28:07.280Z,3.20
2019-06-20T20:30:33.457Z,2.10
2019-06-20T20:33:01.965Z,1.23
2019-06-20T20:35:35.455Z,1.87
2019-06-20T20:37:56.798Z,2.13
2019-06-20T20:40:23.492Z,1.83
2019-06-20T20:42:50.050Z,1.60
2019-06-20T20:45:18.013Z,4.13
2019-06-20T20:47:44.267Z,11.07
2019-06-20T20:50:12.091Z,12.57
2019-06-20T20:52:38.681Z,2.90
2019-06-20T20:55:06.561Z,2.23
2019-06-20T20:57:32.832Z,1.40
2019-06-20T20:59:59.318Z,1.70
2019-06-20T21:02:25.576Z,0.60
2019-06-20T21:04:51.732Z,0.90
2019-06-20T21:07:18.350Z,0.63
2019-06-20T21:09:44.885Z,0.87
2019-06-20T21:12:11.520Z,1.53
2019-06-20T21:14:37.793Z,0.50
2019-06-20T21:17:04.071Z,0.60
2019-06-20T21:19:30.739Z,0.60
2019-06-20T21:21:56.913Z,0.60
2019-06-20T21:24:23.163Z,1.60
2019-06-20T21:26:50.296Z,0.67
2019-06-20T21:29:17.322Z,0.70
2019-06-20T21:31:43.771Z,1.20
2019-06-20T21:34:10.125Z,1.53
2019-06-20T21:36:36.383Z,2.07
2019-06-20T21:39:06.244Z,1.53
2019-06-20T21:41:32.414Z,1.10
2019-06-20T21:43:59.033Z,0.93
2019-06-20T21:46:25.212Z,1.07
2019-06-20T21:48:51.794Z,1.27
2019-06-20T21:51:18.257Z,0.90
2019-06-20T21:53:44.508Z,1.13
2019-06-20T21:56:10.689Z,1.40
2019-06-20T21:58:37.375Z,1.13
2019-06-20T22:01:04.351Z,1.23
2019-06-20T22:03:30.829Z,0.57
2019-06-20T22:05:57.020Z,1.30
2019-06-20T22:08:23.640Z,1.23
2019-06-20T22:10:50.014Z,0.60
2019-06-20T22:13:16.238Z,0.70
2019-06-20T22:15:42.946Z,0.60
2019-06-20T22:18:09.142Z,1.60
2019-06-20T22:20:35.458Z,0.80
2019-06-20T22:23:01.957Z,0.93
2019-06-20T22:25:28.356Z,0.90
2019-06-20T22:27:54.557Z,1.00
2019-06-20T22:30:43.939Z,1.73
2019-06-20T22:33:10.433Z,1.27
2019-06-20T22:35:36.711Z,1.40
2019-06-20T22:38:02.979Z,0.80
2019-06-20T22:40:29.314Z,0.97
2019-06-20T22:42:55.466Z,0.90
2019-06-20T22:45:21.854Z,1.20
2019-06-20T22:47:48.346Z,1.17
2019-06-20T22:50:14.944Z,1.10
2019-06-20T22:52:41.102Z,1.07
2019-06-20T22:55:07.937Z,0.70
2019-06-20T22:57:34.508Z,0.80
2019-06-20T23:00:00.810Z,0.60
2019-06-20T23:02:26.961Z,0.80
2019-06-20T23:04:53.273Z,0.87
2019-06-20T23:07:19.438Z,0.70
2019-06-20T23:09:45.743Z,0.90
2019-06-20T23:12:12.343Z,0.70
2019-06-20T23:14:38.971Z,1.00
2019-06-20T23:17:05.124Z,0.87
2019-06-20T23:19:31.862Z,1.03
2019-06-20T23:21:58.037Z,0.80
2019-06-20T23:24:24.603Z,2.13
2019-06-20T23:26:50.868Z,1.17
2019-06-20T23:29:22.955Z,1.57
2019-06-20T23:31:52.510Z,0.97
2019-06-20T23:34:18.973Z,0.90
2019-06-20T23:36:45.491Z,0.80
2019-06-20T23:39:11.650Z,0.80
2019-06-20T23:41:37.923Z,0.77
2019-06-20T23:44:04.087Z,0.87
2019-06-20T23:46:30.405Z,0.83
2019-06-20T23:48:56.583Z,0.90
2019-06-20T23:51:25.684Z,1.07
2019-06-20T23:53:52.010Z,0.80
2019-06-20T23:56:19.667Z,1.67
2019-06-20T23:58:45.827Z,1.80
